sensor_id;sensor_type;location;lat;lon;timestamp;P1;durP1;ratioP1;P2;durP2;ratioP2
46036;SDS011;31769;49.304;8.428;2023-07-02T00:02:14;8.90;;;2.38;;
46036;SDS011;31769;49.304;8.428;2023-07-02T00:05:34;3.53;;;2.30;;
46036;SDS011;31769;49.304;8.428;2023-07-02T00:08:35;3.17;;;2.08;;
46036;SDS011;31769;49.304;8.428;2023-07-02T00:11:39;3.35;;;2.13;;
46036;SDS011;31769;49.304;8.428;2023-07-02T00:14:41;3.00;;;2.08;;
46036;SDS011;31769;49.304;8.428;2023-07-02T00:17:41;2.20;;;2.00;;
46036;SDS011;31769;49.304;8.428;2023-07-02T00:20:43;6.07;;;1.90;;
46036;SDS011;31769;49.304;8.428;2023-07-02T00:23:44;4.05;;;1.55;;
46036;SDS011;31769;49.304;8.428;2023-07-02T00:26:44;4.90;;;1.92;;
46036;SDS011;31769;49.304;8.428;2023-07-02T00:29:47;1.77;;;1.67;;
46036;SDS011;31769;49.304;8.428;2023-07-02T00:32:48;3.85;;;2.03;;
46036;SDS011;31769;49.304;8.428;2023-07-02T00:35:49;5.53;;;1.90;;
46036;SDS011;31769;49.304;8.428;2023-07-02T00:38:50;3.15;;;1.92;;
46036;SDS011;31769;49.304;8.428;2023-07-02T00:41:51;5.63;;;1.83;;
46036;SDS011;31769;49.304;8.428;2023-07-02T00:44:52;3.80;;;2.20;;
46036;SDS011;31769;49.304;8.428;2023-07-02T00:47:57;5.57;;;2.00;;
46036;SDS011;31769;49.304;8.428;2023-07-02T00:51:03;5.75;;;1.95;;
46036;SDS011;31769;49.304;8.428;2023-07-02T00:54:05;3.28;;;1.90;;
46036;SDS011;31769;49.304;8.428;2023-07-02T00:57:07;4.07;;;1.80;;
46036;SDS011;31769;49.304;8.428;2023-07-02T01:00:08;4.20;;;2.28;;
46036;SDS011;31769;49.304;8.428;2023-07-02T01:03:10;4.07;;;2.45;;
46036;SDS011;31769;49.304;8.428;2023-07-02T01:06:12;5.15;;;2.40;;
46036;SDS011;31769;49.304;8.428;2023-07-02T01:09:25;4.43;;;2.35;;
46036;SDS011;31769;49.304;8.428;2023-07-02T01:12:26;4.22;;;2.60;;
46036;SDS011;31769;49.304;8.428;2023-07-02T01:15:28;4.43;;;2.60;;
46036;SDS011;31769;49.304;8.428;2023-07-02T01:18:29;4.35;;;2.40;;
46036;SDS011;31769;49.304;8.428;2023-07-02T01:21:30;7.53;;;2.92;;
46036;SDS011;31769;49.304;8.428;2023-07-02T01:24:35;4.60;;;3.00;;
46036;SDS011;31769;49.304;8.428;2023-07-02T01:27:38;5.55;;;3.00;;
46036;SDS011;31769;49.304;8.428;2023-07-02T01:30:40;5.65;;;3.38;;
46036;SDS011;31769;49.304;8.428;2023-07-02T01:33:41;6.65;;;3.17;;
46036;SDS011;31769;49.304;8.428;2023-07-02T01:36:42;6.95;;;3.17;;
46036;SDS011;31769;49.304;8.428;2023-07-02T01:39:43;6.97;;;2.90;;
46036;SDS011;31769;49.304;8.428;2023-07-02T01:42:45;7.13;;;3.03;;
46036;SDS011;31769;49.304;8.428;2023-07-02T01:45:46;6.18;;;3.10;;
46036;SDS011;31769;49.304;8.428;2023-07-02T01:48:48;6.18;;;3.13;;
46036;SDS011;31769;49.304;8.428;2023-07-02T01:51:53;8.32;;;3.20;;
46036;SDS011;31769;49.304;8.428;2023-07-02T01:54:54;6.38;;;3.38;;
46036;SDS011;31769;49.304;8.428;2023-07-02T01:57:55;10.10;;;3.53;;
46036;SDS011;31769;49.304;8.428;2023-07-02T02:00:56;8.48;;;3.28;;
46036;SDS011;31769;49.304;8.428;2023-07-02T02:03:57;5.03;;;3.08;;
46036;SDS011;31769;49.304;8.428;2023-07-02T02:06:57;10.52;;;3.47;;
46036;SDS011;31769;49.304;8.428;2023-07-02T02:09:58;6.07;;;3.20;;
46036;SDS011;31769;49.304;8.428;2023-07-02T02:13:00;7.03;;;3.28;;
46036;SDS011;31769;49.304;8.428;2023-07-02T02:16:05;7.25;;;2.60;;
46036;SDS011;31769;49.304;8.428;2023-07-02T02:19:06;5.10;;;3.03;;
46036;SDS011;31769;49.304;8.428;2023-07-02T02:22:06;4.13;;;3.03;;
46036;SDS011;31769;49.304;8.428;2023-07-02T02:25:07;7.38;;;2.90;;
46036;SDS011;31769;49.304;8.428;2023-07-02T02:28:09;4.47;;;2.90;;
46036;SDS011;31769;49.304;8.428;2023-07-02T02:31:10;6.00;;;2.63;;
46036;SDS011;31769;49.304;8.428;2023-07-02T02:34:11;6.53;;;2.83;;
46036;SDS011;31769;49.304;8.428;2023-07-02T02:37:11;6.72;;;3.08;;
46036;SDS011;31769;49.304;8.428;2023-07-02T02:40:13;8.20;;;3.65;;
46036;SDS011;31769;49.304;8.428;2023-07-02T02:43:14;7.07;;;3.78;;
46036;SDS011;31769;49.304;8.428;2023-07-02T02:46:21;6.53;;;3.60;;
46036;SDS011;31769;49.304;8.428;2023-07-02T02:49:23;7.22;;;4.45;;
46036;SDS011;31769;49.304;8.428;2023-07-02T02:52:23;10.13;;;4.90;;
46036;SDS011;31769;49.304;8.428;2023-07-02T02:55:25;8.55;;;4.75;;
46036;SDS011;31769;49.304;8.428;2023-07-02T02:58:26;12.35;;;4.90;;
46036;SDS011;31769;49.304;8.428;2023-07-02T03:01:28;11.57;;;4.93;;
46036;SDS011;31769;49.304;8.428;2023-07-02T03:04:30;7.78;;;4.70;;
46036;SDS011;31769;49.304;8.428;2023-07-02T03:07:32;6.97;;;4.60;;
46036;SDS011;31769;49.304;8.428;2023-07-02T03:10:33;9.98;;;4.45;;
46036;SDS011;31769;49.304;8.428;2023-07-02T03:13:33;8.55;;;4.50;;
46036;SDS011;31769;49.304;8.428;2023-07-02T03:16:34;11.15;;;4.10;;
46036;SDS011;31769;49.304;8.428;2023-07-02T03:19:35;7.97;;;4.10;;
46036;SDS011;31769;49.304;8.428;2023-07-02T03:22:36;7.25;;;3.88;;
46036;SDS011;31769;49.304;8.428;2023-07-02T03:25:36;7.22;;;3.58;;
46036;SDS011;31769;49.304;8.428;2023-07-02T03:28:37;7.65;;;4.22;;
46036;SDS011;31769;49.304;8.428;2023-07-02T03:31:38;5.55;;;3.42;;
46036;SDS011;31769;49.304;8.428;2023-07-02T03:34:38;6.18;;;3.85;;
46036;SDS011;31769;49.304;8.428;2023-07-02T03:37:39;5.43;;;3.70;;
46036;SDS011;31769;49.304;8.428;2023-07-02T03:40:43;6.75;;;3.70;;
46036;SDS011;31769;49.304;8.428;2023-07-02T03:43:44;8.25;;;3.83;;
46036;SDS011;31769;49.304;8.428;2023-07-02T03:46:45;8.98;;;4.10;;
46036;SDS011;31769;49.304;8.428;2023-07-02T03:49:47;6.68;;;3.75;;
46036;SDS011;31769;49.304;8.428;2023-07-02T03:52:48;8.40;;;4.20;;
46036;SDS011;31769;49.304;8.428;2023-07-02T03:55:48;10.52;;;4.05;;
46036;SDS011;31769;49.304;8.428;2023-07-02T03:58:49;10.00;;;3.97;;
46036;SDS011;31769;49.304;8.428;2023-07-02T04:01:50;8.02;;;4.50;;
46036;SDS011;31769;49.304;8.428;2023-07-02T04:04:51;8.75;;;4.90;;
46036;SDS011;31769;49.304;8.428;2023-07-02T04:07:52;9.30;;;4.95;;
46036;SDS011;31769;49.304;8.428;2023-07-02T04:10:52;10.93;;;5.00;;
46036;SDS011;31769;49.304;8.428;2023-07-02T04:13:53;9.85;;;5.63;;
46036;SDS011;31769;49.304;8.428;2023-07-02T04:16:53;9.88;;;5.22;;
46036;SDS011;31769;49.304;8.428;2023-07-02T04:19:54;7.80;;;4.75;;
46036;SDS011;31769;49.304;8.428;2023-07-02T04:22:56;9.68;;;5.45;;
46036;SDS011;31769;49.304;8.428;2023-07-02T04:25:56;8.23;;;5.35;;
46036;SDS011;31769;49.304;8.428;2023-07-02T04:28:57;11.10;;;5.88;;
46036;SDS011;31769;49.304;8.428;2023-07-02T04:31:59;8.30;;;5.00;;
46036;SDS011;31769;49.304;8.428;2023-07-02T04:35:00;8.25;;;5.45;;
46036;SDS011;31769;49.304;8.428;2023-07-02T04:38:01;8.05;;;5.57;;
46036;SDS011;31769;49.304;8.428;2023-07-02T04:41:01;10.25;;;5.53;;
46036;SDS011;31769;49.304;8.428;2023-07-02T04:44:05;10.40;;;5.70;;
46036;SDS011;31769;49.304;8.428;2023-07-02T04:47:05;9.65;;;5.65;;
46036;SDS011;31769;49.304;8.428;2023-07-02T04:50:06;11.52;;;6.18;;
46036;SDS011;31769;49.304;8.428;2023-07-02T04:53:07;12.48;;;5.50;;
46036;SDS011;31769;49.304;8.428;2023-07-02T04:56:08;13.85;;;5.93;;
46036;SDS011;31769;49.304;8.428;2023-07-02T04:59:08;11.80;;;5.57;;
46036;SDS011;31769;49.304;8.428;2023-07-02T05:02:09;11.45;;;5.28;;
46036;SDS011;31769;49.304;8.428;2023-07-02T05:05:10;14.20;;;6.35;;
46036;SDS011;31769;49.304;8.428;2023-07-02T05:08:11;11.18;;;6.18;;
46036;SDS011;31769;49.304;8.428;2023-07-02T05:11:12;14.50;;;6.30;;
46036;SDS011;31769;49.304;8.428;2023-07-02T05:14:12;13.68;;;6.38;;
46036;SDS011;31769;49.304;8.428;2023-07-02T05:17:13;12.18;;;6.35;;
46036;SDS011;31769;49.304;8.428;2023-07-02T05:20:14;13.60;;;6.72;;
46036;SDS011;31769;49.304;8.428;2023-07-02T05:23:15;11.65;;;6.97;;
46036;SDS011;31769;49.304;8.428;2023-07-02T05:26:16;15.82;;;6.78;;
46036;SDS011;31769;49.304;8.428;2023-07-02T05:29:16;13.70;;;6.57;;
